createdAt,value
2023-04-01T00:02:19.285Z,14.89
2023-04-01T00:04:48.894Z,14.91
2023-04-01T00:07:15.737Z,14.91
2023-04-01T00:09:45.099Z,14.87
2023-04-01T00:12:11.834Z,14.88
2023-04-01T00:14:42.015Z,14.89
2023-04-01T00:17:10.615Z,14.88
2023-04-01T00:19:50.390Z,14.89
2023-04-01T00:22:17.177Z,14.80
2023-04-01T00:24:46.455Z,14.86
2023-04-01T00:27:13.296Z,14.78
2023-04-01T00:29:43.655Z,14.82
2023-04-01T00:32:10.560Z,14.83
2023-04-01T00:34:42.680Z,14.76
2023-04-01T00:37:14.354Z,14.94
2023-04-01T00:39:41.162Z,14.87
2023-04-01T00:42:17.574Z,14.70
2023-04-01T00:44:51.290Z,14.63
2023-04-01T00:47:22.243Z,14.71
2023-04-01T00:49:52.566Z,14.72
2023-04-01T00:52:23.513Z,14.71
2023-04-01T00:54:55.202Z,14.68
2023-04-01T00:57:43.669Z,14.64
2023-04-01T01:00:19.522Z,14.54
2023-04-01T01:02:51.718Z,14.52
2023-04-01T01:05:48.605Z,14.58
2023-04-01T01:08:53.769Z,14.55
2023-04-01T01:11:43.847Z,14.46
2023-04-01T01:14:34.396Z,14.39
2023-04-01T01:17:19.919Z,14.35
2023-04-01T01:23:50.312Z,14.19
2023-04-01T01:27:06.723Z,14.23
2023-04-01T01:33:12.432Z,14.21
2023-04-01T01:35:45.849Z,14.07
2023-04-01T01:38:19.861Z,14.13
2023-04-01T01:40:50.956Z,14.16
2023-04-01T01:43:23.930Z,14.05
2023-04-01T01:46:00.965Z,14.06
2023-04-01T01:48:43.326Z,14.20
2023-04-01T01:51:13.364Z,14.05
2023-04-01T01:53:50.774Z,13.98
2023-04-01T01:56:25.979Z,13.88
2023-04-01T01:59:09.212Z,13.75
2023-04-01T02:01:44.253Z,13.87
2023-04-01T02:04:15.003Z,13.88
2023-04-01T02:06:49.052Z,13.83
2023-04-01T02:09:21.743Z,13.89
2023-04-01T02:12:00.353Z,13.83
2023-04-01T02:14:56.748Z,13.87
2023-04-01T02:17:37.812Z,13.82
2023-04-01T02:20:13.680Z,13.75
2023-04-01T02:23:05.003Z,13.68
2023-04-01T02:25:43.260Z,13.63
2023-04-01T02:28:11.844Z,13.61
2023-04-01T02:30:43.888Z,13.58
2023-04-01T02:33:12.327Z,13.57
2023-04-01T02:35:40.743Z,13.55
2023-04-01T02:38:13.615Z,13.56
2023-04-01T02:40:59.974Z,13.63
2023-04-01T02:43:26.956Z,13.50
2023-04-01T02:45:55.121Z,13.58
2023-04-01T02:51:09.286Z,13.60
2023-04-01T02:53:49.595Z,13.65
2023-04-01T02:56:28.016Z,13.61
2023-04-01T02:59:01.591Z,13.62
2023-04-01T03:01:38.431Z,13.51
2023-04-01T03:04:19.741Z,13.60
2023-04-01T03:06:48.869Z,13.43
2023-04-01T03:09:26.835Z,13.41
2023-04-01T03:14:30.409Z,13.33
2023-04-01T03:17:01.535Z,13.27
2023-04-01T03:19:28.464Z,13.33
2023-04-01T03:24:34.151Z,13.22
2023-04-01T03:27:05.536Z,13.19
2023-04-01T03:29:34.616Z,13.23
2023-04-01T03:32:02.356Z,13.22
2023-04-01T03:34:34.313Z,13.20
2023-04-01T03:37:11.950Z,13.12
2023-04-01T03:39:39.266Z,13.10
2023-04-01T03:42:07.474Z,13.04
2023-04-01T03:44:40.033Z,13.03
2023-04-01T03:47:07.548Z,12.94
2023-04-01T03:49:34.904Z,12.87
2023-04-01T03:52:02.121Z,12.74
2023-04-01T03:54:28.875Z,12.79
2023-04-01T03:56:55.688Z,12.81
2023-04-01T03:59:22.637Z,12.87
2023-04-01T04:01:49.606Z,12.86
2023-04-01T04:04:16.412Z,12.89
2023-04-01T04:06:43.204Z,12.85
2023-04-01T04:09:10.808Z,12.77
2023-04-01T04:11:39.058Z,12.76
2023-04-01T04:14:07.282Z,12.61
2023-04-01T04:16:36.772Z,12.59
2023-04-01T04:19:13.464Z,12.58
2023-04-01T04:21:45.450Z,12.57
2023-04-01T04:24:12.247Z,12.57
2023-04-01T04:26:39.038Z,12.56
2023-04-01T04:29:06.297Z,12.54
2023-04-01T04:31:35.860Z,12.52
2023-04-01T04:34:05.903Z,12.51
2023-04-01T04:36:45.921Z,12.46
2023-04-01T04:39:22.707Z,12.65
2023-04-01T04:41:55.020Z,12.64
2023-04-01T04:44:22.080Z,12.53
2023-04-01T04:46:50.141Z,12.46
2023-04-01T04:49:30.245Z,12.54
2023-04-01T04:51:57.621Z,12.63
2023-04-01T04:54:24.362Z,12.74
2023-04-01T04:56:53.372Z,12.56
2023-04-01T04:59:20.189Z,12.48
2023-04-01T05:01:49.731Z,12.53
2023-04-01T05:04:16.709Z,12.40
2023-04-01T05:06:44.815Z,12.35
2023-04-01T05:09:11.554Z,12.28
2023-04-01T05:11:38.500Z,12.17
2023-04-01T05:14:05.299Z,12.16
2023-04-01T05:16:34.108Z,12.02
2023-04-01T05:19:11.442Z,12.06
2023-04-01T05:21:43.325Z,11.99
2023-04-01T05:24:15.855Z,11.92
2023-04-01T05:26:42.852Z,12.01
2023-04-01T05:29:09.847Z,11.96
2023-04-01T05:31:37.049Z,12.01
2023-04-01T05:34:04.117Z,12.11
2023-04-01T05:36:35.633Z,12.16
2023-04-01T05:39:07.108Z,12.37
2023-04-01T05:41:38.635Z,12.39
2023-04-01T05:44:12.354Z,12.51
2023-04-01T05:46:43.317Z,12.53
2023-04-01T05:49:12.617Z,12.49
2023-04-01T05:51:45.302Z,12.59
2023-04-01T05:54:16.728Z,12.58
2023-04-01T05:56:43.424Z,12.63
2023-04-01T05:59:11.582Z,12.68
2023-04-01T06:01:38.524Z,12.65
2023-04-01T06:04:14.817Z,12.60
2023-04-01T06:06:41.606Z,12.61
2023-04-01T06:09:19.292Z,12.61
2023-04-01T06:12:23.110Z,12.67
2023-04-01T06:14:58.920Z,12.76
2023-04-01T06:18:06.472Z,12.95
2023-04-01T06:21:17.012Z,12.95
2023-04-01T06:24:00.202Z,13.14
2023-04-01T06:26:47.912Z,13.44
2023-04-01T06:29:39.413Z,13.54
2023-04-01T06:32:15.649Z,13.65
2023-04-01T06:35:30.185Z,13.77
2023-04-01T06:38:27.173Z,14.05
2023-04-01T06:41:03.538Z,14.13
2023-04-01T06:43:47.661Z,14.06
2023-04-01T06:46:29.438Z,14.05
2023-04-01T06:49:21.390Z,14.06
2023-04-01T06:55:22.931Z,14.22
2023-04-01T06:58:20.619Z,14.29
2023-04-01T07:00:55.622Z,14.59
2023-04-01T07:04:00.262Z,14.43
2023-04-01T07:06:37.590Z,14.54
2023-04-01T07:09:14.249Z,14.48
2023-04-01T07:11:43.528Z,14.50
2023-04-01T07:14:29.488Z,14.55
2023-04-01T07:17:10.443Z,14.75
2023-04-01T07:19:53.593Z,15.04
2023-04-01T07:22:41.757Z,15.20
2023-04-01T07:25:26.626Z,15.18
2023-04-01T07:28:04.410Z,15.41
2023-04-01T07:30:48.177Z,15.69
2023-04-01T07:33:45.459Z,15.90
2023-04-01T07:36:34.400Z,16.08
2023-04-01T07:39:50.908Z,16.24
2023-04-01T07:42:30.349Z,16.06
2023-04-01T07:45:36.740Z,16.21
2023-04-01T07:48:31.429Z,16.23
2023-04-01T07:51:15.481Z,16.24
2023-04-01T07:54:23.377Z,16.44
2023-04-01T07:57:13.368Z,16.35
2023-04-01T07:59:54.976Z,16.57
2023-04-01T08:03:02.058Z,16.51
2023-04-01T08:05:40.929Z,16.61
2023-04-01T08:08:48.049Z,16.83
2023-04-01T08:11:51.864Z,17.02
2023-04-01T08:14:50.026Z,16.79
2023-04-01T08:17:31.669Z,16.72
2023-04-01T08:20:01.286Z,16.69
2023-04-01T08:22:34.062Z,16.73
2023-04-01T08:25:04.998Z,16.85
2023-04-01T08:27:58.893Z,16.98
2023-04-01T08:30:34.957Z,16.95
2023-04-01T08:33:12.274Z,17.09
2023-04-01T08:35:55.394Z,17.08
2023-04-01T08:38:59.133Z,16.90
2023-04-01T08:42:23.531Z,16.79
2023-04-01T08:44:58.255Z,16.67
2023-04-01T08:48:02.174Z,16.76
2023-04-01T08:50:48.190Z,16.71
2023-04-01T08:54:08.323Z,16.72
2023-04-01T08:57:03.097Z,16.61
2023-04-01T08:59:59.789Z,16.54
2023-04-01T09:03:20.873Z,16.39
2023-04-01T09:06:24.964Z,16.45
2023-04-01T09:09:19.423Z,16.37
2023-04-01T09:12:07.186Z,16.59
2023-04-01T09:15:02.787Z,16.46
2023-04-01T09:17:52.668Z,16.60
2023-04-01T09:20:43.348Z,16.51
2023-04-01T09:23:38.079Z,16.49
2023-04-01T09:26:23.463Z,16.64
2023-04-01T09:28:53.081Z,16.66
2023-04-01T09:31:20.034Z,16.93
2023-04-01T09:34:14.524Z,16.71
2023-04-01T09:37:36.467Z,16.77
2023-04-01T09:40:50.601Z,16.54
2023-04-01T09:44:13.666Z,16.61
2023-04-01T09:47:06.072Z,16.68
2023-04-01T09:49:45.850Z,16.96
2023-04-01T09:52:51.056Z,16.98
2023-04-01T09:55:27.968Z,17.21
2023-04-01T09:58:18.501Z,17.60
2023-04-01T10:01:04.100Z,17.48
2023-04-01T10:03:55.165Z,17.42
2023-04-01T10:07:04.094Z,17.31
2023-04-01T10:09:57.043Z,17.67
2023-04-01T10:12:49.111Z,17.77
2023-04-01T10:15:46.942Z,17.54
2023-04-01T10:18:27.885Z,17.42
2023-04-01T10:21:23.045Z,17.78
2023-04-01T10:24:44.026Z,18.33
2023-04-01T10:27:42.846Z,17.88
2023-04-01T10:30:32.240Z,17.87
2023-04-01T10:33:23.742Z,17.48
2023-04-01T10:36:16.531Z,18.05
2023-04-01T10:39:24.103Z,18.48
2023-04-01T10:42:22.641Z,18.57
2023-04-01T10:45:30.360Z,18.24
2023-04-01T10:48:18.817Z,18.40
2023-04-01T10:50:51.592Z,18.23
2023-04-01T10:53:39.876Z,18.16
2023-04-01T10:56:41.505Z,18.26
2023-04-01T10:59:31.733Z,18.35
2023-04-01T11:02:27.854Z,18.52
2023-04-01T11:05:09.557Z,18.85
2023-04-01T11:08:12.490Z,18.55
2023-04-01T11:11:18.601Z,18.75
2023-04-01T11:14:03.735Z,18.52
2023-04-01T11:17:03.621Z,18.53
2023-04-01T11:19:55.654Z,18.57
2023-04-01T11:22:57.296Z,18.58
2023-04-01T11:25:39.557Z,18.82
2023-04-01T11:28:47.236Z,18.68
2023-04-01T11:31:35.360Z,18.38
2023-04-01T11:34:40.845Z,18.37
2023-04-01T11:37:35.001Z,19.11
2023-04-01T11:40:28.401Z,19.17
2023-04-01T11:43:35.739Z,19.17
2023-04-01T11:46:13.037Z,18.89
2023-04-01T11:48:57.341Z,18.83
2023-04-01T11:51:33.645Z,18.66
2023-04-01T11:54:24.937Z,18.74
2023-04-01T11:57:22.226Z,18.60
2023-04-01T12:00:02.537Z,18.65
2023-04-01T12:06:03.455Z,18.80
2023-04-01T12:08:56.550Z,18.74
2023-04-01T12:12:02.585Z,18.67
2023-04-01T12:14:45.376Z,18.68
2023-04-01T12:17:55.525Z,18.78
2023-04-01T12:20:39.197Z,18.44
2023-04-01T12:23:35.093Z,18.33
2023-04-01T12:26:24.321Z,18.59
2023-04-01T12:29:12.456Z,18.25
2023-04-01T12:32:34.357Z,18.33
2023-04-01T12:35:42.051Z,18.90
2023-04-01T12:38:37.044Z,19.01
2023-04-01T12:41:15.751Z,19.06
2023-04-01T12:44:04.878Z,19.57
2023-04-01T12:47:09.768Z,18.66
2023-04-01T12:50:21.590Z,18.87
2023-04-01T12:53:02.382Z,18.80
2023-04-01T12:55:44.935Z,18.61
2023-04-01T12:58:43.145Z,18.78
2023-04-01T13:01:33.729Z,18.77
2023-04-01T13:04:32.947Z,19.36
2023-04-01T13:07:18.937Z,18.89
2023-04-01T13:10:26.342Z,18.78
2023-04-01T13:13:22.578Z,18.41
2023-04-01T13:16:28.308Z,18.35
2023-04-01T13:19:15.866Z,19.11
2023-04-01T13:22:21.250Z,19.47
2023-04-01T13:25:03.208Z,18.78
2023-04-01T13:27:42.327Z,18.69
2023-04-01T13:30:17.780Z,19.13
2023-04-01T13:33:03.198Z,19.06
2023-04-01T13:36:13.984Z,19.58
2023-04-01T13:39:12.837Z,19.21
2023-04-01T13:42:02.858Z,18.71
2023-04-01T13:44:53.289Z,18.39
2023-04-01T13:47:46.916Z,18.59
2023-04-01T13:51:02.364Z,18.77
2023-04-01T13:53:45.116Z,18.87
2023-04-01T13:56:42.789Z,19.13
2023-04-01T13:59:36.458Z,18.96
2023-04-01T14:02:31.265Z,18.94
2023-04-01T14:05:43.677Z,18.73
2023-04-01T14:08:29.369Z,18.48
2023-04-01T14:11:44.126Z,18.38
2023-04-01T14:14:55.490Z,18.56
2023-04-01T14:18:03.470Z,18.60
2023-04-01T14:20:52.953Z,19.46
2023-04-01T14:23:45.215Z,19.19
2023-04-01T14:26:11.859Z,19.07
2023-04-01T14:29:06.670Z,19.37
2023-04-01T14:31:50.116Z,19.60
2023-04-01T14:34:26.661Z,20.11
2023-04-01T14:37:17.268Z,19.91
2023-04-01T14:40:06.491Z,20.24
2023-04-01T14:43:17.079Z,20.01
2023-04-01T14:46:25.205Z,19.77
2023-04-01T14:49:24.604Z,19.91
2023-04-01T14:51:54.545Z,19.78
2023-04-01T14:54:50.580Z,20.02
2023-04-01T14:57:35.638Z,19.68
2023-04-01T15:00:24.460Z,19.44
2023-04-01T15:03:23.297Z,19.74
2023-04-01T15:05:58.760Z,19.69
2023-04-01T15:08:56.419Z,19.51
2023-04-01T15:11:51.197Z,19.23
2023-04-01T15:14:54.957Z,18.90
2023-04-01T15:17:45.024Z,19.04
2023-04-01T15:20:53.943Z,19.49
2023-04-01T15:23:41.013Z,19.43
2023-04-01T15:26:16.624Z,19.24
2023-04-01T15:28:46.540Z,19.22
2023-04-01T15:31:20.332Z,19.42
2023-04-01T15:34:11.449Z,19.67
2023-04-01T15:36:54.892Z,19.63
2023-04-01T15:39:39.432Z,19.90
2023-04-01T15:42:27.746Z,19.85
2023-04-01T15:45:16.411Z,19.70
2023-04-01T15:47:58.434Z,19.24
2023-04-01T15:50:25.025Z,19.47
2023-04-01T15:53:15.644Z,19.01
2023-04-01T15:58:38.019Z,18.83
2023-04-01T16:01:10.664Z,18.83
2023-04-01T16:03:48.540Z,18.81
2023-04-01T16:06:31.383Z,18.52
2023-04-01T16:09:55.025Z,18.62
2023-04-01T16:12:40.401Z,18.59
2023-04-01T16:15:47.413Z,18.49
2023-04-01T16:18:52.769Z,18.41
2023-04-01T16:21:37.413Z,18.35
2023-04-01T16:24:32.099Z,18.34
2023-04-01T16:27:31.389Z,18.26
2023-04-01T16:30:36.395Z,18.42
2023-04-01T16:33:30.835Z,18.48
2023-04-01T16:36:11.545Z,18.40
2023-04-01T16:38:53.006Z,18.33
2023-04-01T16:41:42.638Z,18.54
2023-04-01T16:44:28.681Z,18.40
2023-04-01T16:47:02.281Z,18.47
2023-04-01T16:49:54.010Z,18.40
2023-04-01T16:52:45.556Z,18.26
2023-04-01T16:55:36.060Z,18.18
2023-04-01T16:58:18.289Z,18.16
2023-04-01T17:01:17.804Z,18.17
2023-04-01T17:04:06.234Z,18.14
2023-04-01T17:06:35.685Z,18.09
2023-04-01T17:09:11.367Z,17.90
2023-04-01T17:11:58.026Z,17.96
2023-04-01T17:15:05.972Z,17.90
2023-04-01T17:17:53.063Z,17.78
2023-04-01T17:20:43.218Z,17.86
2023-04-01T17:23:25.825Z,17.74
2023-04-01T17:26:22.955Z,17.85
2023-04-01T17:29:18.373Z,17.78
2023-04-01T17:32:04.170Z,17.60
2023-04-01T17:34:31.929Z,17.70
2023-04-01T17:37:23.952Z,17.51
2023-04-01T17:40:27.049Z,17.49
2023-04-01T17:43:16.170Z,17.40
2023-04-01T17:46:05.588Z,17.31
2023-04-01T17:49:07.608Z,17.29
2023-04-01T17:51:51.221Z,17.33
2023-04-01T17:54:47.921Z,17.18
2023-04-01T17:57:57.676Z,17.16
2023-04-01T18:00:42.079Z,17.09
2023-04-01T18:04:02.459Z,17.10
2023-04-01T18:06:32.263Z,16.93
2023-04-01T18:09:50.736Z,16.93
2023-04-01T18:12:53.293Z,16.84
2023-04-01T18:15:42.112Z,16.89
2023-04-01T18:18:28.354Z,16.84
2023-04-01T18:21:07.210Z,16.86
2023-04-01T18:24:16.555Z,16.74
2023-04-01T18:27:53.882Z,16.65
2023-04-01T18:30:41.627Z,16.58
2023-04-01T18:33:36.630Z,16.62
2023-04-01T18:36:24.530Z,16.57
2023-04-01T18:39:23.419Z,16.55
2023-04-01T18:42:17.321Z,16.52
2023-04-01T18:44:44.049Z,16.40
2023-04-01T18:47:39.038Z,16.43
2023-04-01T18:50:30.497Z,16.42
2023-04-01T18:56:14.506Z,16.38
2023-04-01T18:59:01.783Z,16.30
2023-04-01T19:02:06.215Z,16.27
2023-04-01T19:04:43.829Z,16.35
2023-04-01T19:07:54.006Z,16.43
2023-04-01T19:10:47.380Z,16.37
2023-04-01T19:13:38.701Z,16.30
2023-04-01T19:16:30.275Z,16.28
2023-04-01T19:19:57.458Z,16.29
2023-04-01T19:22:52.802Z,16.28
2023-04-01T19:25:40.026Z,16.30
2023-04-01T19:28:51.790Z,16.19
2023-04-01T19:31:37.889Z,16.18
2023-04-01T19:34:48.730Z,16.26
2023-04-01T19:37:36.726Z,16.24
2023-04-01T19:40:22.082Z,16.17
2023-04-01T19:43:45.626Z,16.19
2023-04-01T19:46:34.272Z,16.10
2023-04-01T19:49:34.326Z,16.19
2023-04-01T19:52:12.566Z,16.15
2023-04-01T19:55:14.731Z,16.08
2023-04-01T19:57:43.801Z,16.11
2023-04-01T20:00:43.837Z,16.22
2023-04-01T20:04:01.864Z,16.06
2023-04-01T20:06:58.029Z,16.01
2023-04-01T20:10:02.403Z,15.98
2023-04-01T20:13:00.854Z,15.94
2023-04-01T20:15:45.829Z,15.95
2023-04-01T20:18:43.258Z,15.94
2023-04-01T20:21:30.822Z,15.83
2023-04-01T20:24:24.069Z,15.89
2023-04-01T20:27:03.051Z,15.94
2023-04-01T20:29:32.953Z,15.95
2023-04-01T20:32:18.392Z,15.92
2023-04-01T20:35:04.229Z,15.91
2023-04-01T20:37:43.690Z,15.84
2023-04-01T20:40:35.928Z,15.73
2023-04-01T20:43:21.283Z,15.76
2023-04-01T20:46:07.354Z,15.69
2023-04-01T20:49:19.910Z,15.68
2023-04-01T20:52:18.500Z,15.69
2023-04-01T20:55:00.194Z,15.76
2023-04-01T20:57:57.781Z,15.67
2023-04-01T21:00:42.419Z,15.77
2023-04-01T21:03:37.167Z,15.70
2023-04-01T21:06:27.391Z,15.84
2023-04-01T21:09:22.965Z,15.83
2023-04-01T21:12:02.578Z,15.81
2023-04-01T21:14:54.808Z,15.65
2023-04-01T21:17:43.436Z,15.80
2023-04-01T21:20:27.237Z,15.65
2023-04-01T21:23:22.374Z,15.60
2023-04-01T21:26:23.520Z,15.77
2023-04-01T21:29:18.002Z,15.70
2023-04-01T21:32:09.830Z,15.59
2023-04-01T21:38:19.008Z,15.66
2023-04-01T21:40:55.182Z,15.60
2023-04-01T21:43:46.649Z,15.70
2023-04-01T21:46:23.457Z,15.66
2023-04-01T21:49:28.001Z,15.70
2023-04-01T21:52:19.366Z,15.72
2023-04-01T21:55:12.526Z,15.66
2023-04-01T21:58:20.376Z,15.69
2023-04-01T22:01:04.737Z,15.66
2023-04-01T22:03:51.743Z,15.65
2023-04-01T22:06:44.127Z,15.65
2023-04-01T22:09:34.449Z,15.66
2023-04-01T22:12:44.383Z,15.61
2023-04-01T22:15:46.549Z,15.63
2023-04-01T22:18:43.376Z,15.58
2023-04-01T22:21:19.262Z,15.57
2023-04-01T22:26:49.556Z,15.52
2023-04-01T22:29:50.427Z,15.48
2023-04-01T22:32:24.651Z,15.61
2023-04-01T22:35:29.123Z,15.54
2023-04-01T22:38:18.369Z,15.68
2023-04-01T22:41:05.317Z,15.68
2023-04-01T22:43:50.806Z,15.63
2023-04-01T22:46:43.473Z,15.57
2023-04-01T22:49:19.047Z,15.67
2023-04-01T22:51:57.882Z,15.61
2023-04-01T22:54:33.685Z,15.59
2023-04-01T22:57:09.772Z,15.60
2023-04-01T22:59:52.175Z,15.55
2023-04-01T23:02:51.470Z,15.42
2023-04-01T23:05:23.975Z,15.60
2023-04-01T23:08:20.751Z,15.54
2023-04-01T23:11:09.837Z,15.51
2023-04-01T23:13:53.776Z,15.51
2023-04-01T23:16:36.153Z,15.46
2023-04-01T23:19:19.003Z,15.43
2023-04-01T23:21:53.237Z,15.37
2023-04-01T23:24:40.264Z,15.40
2023-04-01T23:27:10.874Z,15.38
2023-04-01T23:29:43.745Z,15.33
2023-04-01T23:32:27.767Z,15.48
2023-04-01T23:35:04.515Z,15.50
2023-04-01T23:37:34.098Z,15.42
2023-04-01T23:40:04.543Z,15.44
2023-04-01T23:42:32.413Z,15.44
2023-04-01T23:45:06.429Z,15.38
2023-04-01T23:47:42.183Z,15.41
2023-04-01T23:50:15.723Z,15.40
2023-04-01T23:52:47.506Z,15.26
2023-04-01T23:55:26.446Z,15.20
2023-04-01T23:58:24.200Z,15.27
